Time;durP1;ratioP1;P1;durP2;ratioP2;P2;SDS_P1;SDS_P2;PMS_P1;PMS_P2;Temp;Humidity;BMP_temperature;BMP_pressure;BME280_temperature;BME280_humidity;BME280_pressure;Samples;Min_cycle;Max_cycle;Signal;HPM_P1;HPM_P2
2022/01/17 00:02:19;;;;;;;8.90;2.20;;;6.10;99.90;;;;;;5026877;28;20724;-51
2022/01/17 00:04:47;;;;;;;12.97;1.93;;;6.00;99.90;;;;;;5042794;28;20208;-51
2022/01/17 00:07:14;;;;;;;15.97;2.40;;;6.00;99.90;;;;;;5032279;28;20263;-51
2022/01/17 00:09:41;;;;;;;9.77;2.27;;;6.00;99.90;;;;;;5022256;28;20392;-51
2022/01/17 00:12:11;;;;;;;7.37;1.97;;;6.00;99.90;;;;;;5017759;28;20609;-51
2022/01/17 00:14:41;;;;;;;14.07;2.47;;;6.00;99.90;;;;;;5034919;28;20209;-50
2022/01/17 00:17:23;;;;;;;12.47;2.23;;;6.00;99.90;;;;;;5044179;28;20313;-51
2022/01/17 00:19:54;;;;;;;14.33;2.60;;;6.00;99.90;;;;;;5027918;28;20628;-52
2022/01/17 00:22:21;;;;;;;9.73;2.27;;;6.00;99.90;;;;;;5046938;28;20227;-51
2022/01/17 00:24:49;;;;;;;8.63;2.07;;;6.00;99.90;;;;;;5030258;28;20910;-51
2022/01/17 00:27:17;;;;;;;16.33;2.47;;;5.90;99.90;;;;;;5027531;28;20955;-51
2022/01/17 00:29:44;;;;;;;9.40;1.83;;;5.90;99.90;;;;;;5037862;28;20321;-51
2022/01/17 00:32:12;;;;;;;9.03;1.80;;;5.90;99.90;;;;;;5029932;28;20232;-51
2022/01/17 00:34:39;;;;;;;14.93;2.00;;;6.00;99.90;;;;;;5023054;28;20208;-51
2022/01/17 00:37:06;;;;;;;12.17;2.57;;;6.00;99.90;;;;;;5036125;28;20225;-51
2022/01/17 00:39:33;;;;;;;8.87;2.10;;;6.00;99.90;;;;;;5034701;28;20200;-51
2022/01/17 00:42:00;;;;;;;16.70;2.70;;;6.00;99.90;;;;;;5019377;28;20323;-50
2022/01/17 00:44:28;;;;;;;10.90;2.47;;;6.00;99.90;;;;;;5028258;28;20220;-51
2022/01/17 00:46:55;;;;;;;7.20;1.70;;;6.10;99.90;;;;;;5025902;28;20295;-51
2022/01/17 00:49:22;;;;;;;16.87;3.23;;;6.10;99.90;;;;;;5033806;28;20213;-51
2022/01/17 00:51:49;;;;;;;14.87;2.30;;;6.00;99.90;;;;;;5037662;28;20220;-50
2022/01/17 00:54:16;;;;;;;9.10;2.13;;;6.10;99.90;;;;;;5045522;28;20207;-52
2022/01/17 00:56:43;;;;;;;10.30;2.10;;;6.00;99.90;;;;;;5034418;28;20236;-51
2022/01/17 00:59:10;;;;;;;8.20;1.87;;;6.10;99.90;;;;;;5018497;28;20312;-50
2022/01/17 01:01:39;;;;;;;13.30;3.47;;;6.10;99.90;;;;;;5039118;28;21166;-51
2022/01/17 01:04:06;;;;;;;13.87;2.37;;;6.10;99.90;;;;;;5014298;28;21092;-50
2022/01/17 01:06:36;;;;;;;12.97;2.73;;;6.10;99.90;;;;;;5036867;28;20209;-51
2022/01/17 01:09:03;;;;;;;10.77;2.30;;;6.10;99.90;;;;;;5042728;28;20210;-50
2022/01/17 01:11:30;;;;;;;13.77;2.63;;;6.10;99.90;;;;;;5032654;28;20213;-51
2022/01/17 01:13:57;;;;;;;12.43;2.97;;;6.10;99.90;;;;;;5029795;28;20278;-51
2022/01/17 01:16:33;;;;;;;11.30;2.13;;;6.10;99.90;;;;;;5028090;28;20304;-51
2022/01/17 01:19:26;;;;;;;14.27;2.53;;;6.10;99.90;;;;;;5033825;28;20208;-50
2022/01/17 01:27:39;;;;;;;12.83;2.17;;;6.10;99.90;;;;;;5011484;28;20229;-51
2022/01/17 01:27:47;;;;;;;8.00;1.87;;;6.10;99.90;;;;;;5039257;28;20221;-51
2022/01/17 01:30:17;;;;;;;16.77;2.67;;;6.10;99.90;;;;;;5021716;28;20734;-51
2022/01/17 01:32:48;;;;;;;16.53;2.33;;;6.10;99.90;;;;;;5042644;28;20229;-54
2022/01/17 01:35:20;;;;;;;13.13;2.60;;;6.10;99.90;;;;;;5019856;28;20932;-51
2022/01/17 01:37:48;;;;;;;8.63;2.43;;;6.10;99.90;;;;;;5028674;28;20315;-50
2022/01/17 01:40:16;;;;;;;7.63;1.70;;;6.20;99.90;;;;;;5030726;28;21358;-51
2022/01/17 01:42:43;;;;;;;14.87;2.47;;;6.20;99.90;;;;;;5029276;28;20287;-51
2022/01/17 01:45:12;;;;;;;13.20;1.87;;;6.20;99.90;;;;;;5020620;28;20213;-51
2022/01/17 01:47:39;;;;;;;9.27;2.70;;;6.20;99.90;;;;;;5041772;28;20204;-51
2022/01/17 01:50:08;;;;;;;13.37;2.30;;;6.20;99.90;;;;;;5037850;28;20402;-51
2022/01/17 01:52:36;;;;;;;13.30;2.13;;;6.20;99.90;;;;;;5037747;28;20283;-51
2022/01/17 01:55:04;;;;;;;11.80;2.30;;;6.20;99.90;;;;;;5035658;28;20216;-51
2022/01/17 01:57:31;;;;;;;13.23;3.10;;;6.20;99.90;;;;;;5026094;28;20977;-51
2022/01/17 01:59:58;;;;;;;11.33;2.23;;;6.20;99.90;;;;;;5017001;28;20223;-53
2022/01/17 02:02:25;;;;;;;15.83;2.73;;;6.20;99.90;;;;;;5041750;28;20393;-51
2022/01/17 02:04:51;;;;;;;9.43;1.90;;;6.20;99.90;;;;;;5037193;28;20693;-51
2022/01/17 02:07:20;;;;;;;9.93;1.83;;;6.20;99.90;;;;;;5021322;28;20209;-51
2022/01/17 02:09:48;;;;;;;12.50;2.67;;;6.20;99.90;;;;;;5034396;28;20606;-51
2022/01/17 02:12:20;;;;;;;20.03;2.73;;;6.20;99.90;;;;;;5047278;28;20216;-52
2022/01/17 02:14:48;;;;;;;14.57;2.60;;;6.20;99.90;;;;;;5035286;28;20250;-51
2022/01/17 02:17:16;;;;;;;14.20;1.77;;;6.30;99.90;;;;;;5026871;28;20552;-52
2022/01/17 02:19:46;;;;;;;14.33;2.27;;;6.20;99.90;;;;;;5044253;28;20220;-51
2022/01/17 02:22:15;;;;;;;15.03;2.80;;;6.30;99.90;;;;;;5035613;28;20220;-51
2022/01/17 02:24:42;;;;;;;7.93;1.57;;;6.30;99.90;;;;;;5028597;28;20209;-51
2022/01/17 02:27:09;;;;;;;10.90;2.80;;;6.20;99.90;;;;;;5046482;28;20197;-51
2022/01/17 02:29:36;;;;;;;10.90;2.27;;;6.30;99.90;;;;;;5040081;28;20213;-51
2022/01/17 02:32:03;;;;;;;10.47;1.87;;;6.20;99.90;;;;;;5023131;28;20235;-51
2022/01/17 02:34:30;;;;;;;13.00;2.53;;;6.20;99.90;;;;;;5022941;28;20209;-51
2022/01/17 02:36:57;;;;;;;11.97;2.23;;;6.20;99.90;;;;;;5044314;28;20217;-51
2022/01/17 02:39:26;;;;;;;16.37;2.13;;;6.20;99.90;;;;;;5023804;28;20215;-51
2022/01/17 02:41:53;;;;;;;13.30;2.33;;;6.20;99.90;;;;;;5034156;28;20229;-51
2022/01/17 02:44:19;;;;;;;10.47;2.13;;;6.20;99.90;;;;;;5015348;28;20216;-51
2022/01/17 02:46:47;;;;;;;14.57;2.23;;;6.20;99.90;;;;;;5043190;28;20201;-51
2022/01/17 02:49:14;;;;;;;12.03;2.40;;;6.20;99.90;;;;;;5021230;28;20303;-51
2022/01/17 02:51:43;;;;;;;6.73;2.20;;;6.20;99.90;;;;;;5045946;28;20209;-52
2022/01/17 02:54:10;;;;;;;10.80;1.90;;;6.20;99.90;;;;;;5043848;28;20671;-51
2022/01/17 02:56:39;;;;;;;8.30;1.67;;;6.20;99.90;;;;;;5024307;28;21002;-51
2022/01/17 02:59:05;;;;;;;9.10;2.03;;;6.20;99.90;;;;;;5049896;28;20700;-51
2022/01/17 03:01:32;;;;;;;12.67;2.23;;;6.20;99.90;;;;;;5038056;28;20207;-51
2022/01/17 03:04:00;;;;;;;8.57;1.97;;;6.20;99.90;;;;;;5034978;28;20205;-50
2022/01/17 03:06:28;;;;;;;10.73;1.83;;;6.20;99.90;;;;;;5034758;28;20204;-51
2022/01/17 03:08:55;;;;;;;12.53;2.23;;;6.20;99.90;;;;;;5042077;28;20204;-51
2022/01/17 03:11:24;;;;;;;14.50;2.20;;;6.30;99.90;;;;;;5019930;28;20224;-51
2022/01/17 03:13:53;;;;;;;9.07;2.37;;;6.30;99.90;;;;;;5046168;28;20217;-54
2022/01/17 03:16:28;;;;;;;10.63;2.53;;;6.20;99.90;;;;;;5034584;28;20213;-51
2022/01/17 03:18:56;;;;;;;15.63;2.13;;;6.30;99.90;;;;;;5030753;28;20220;-51
2022/01/17 03:21:24;;;;;;;9.50;1.73;;;6.30;99.90;;;;;;5024075;28;20204;-51
2022/01/17 03:23:51;;;;;;;9.03;1.73;;;6.40;99.90;;;;;;5040486;28;20750;-51
2022/01/17 03:26:18;;;;;;;11.37;2.20;;;6.30;99.90;;;;;;5032091;28;20250;-52
2022/01/17 03:28:45;;;;;;;17.83;3.30;;;6.30;99.90;;;;;;5041394;28;20683;-51
2022/01/17 03:31:14;;;;;;;12.97;2.70;;;6.30;99.90;;;;;;5035207;28;20220;-51
2022/01/17 03:33:41;;;;;;;13.10;2.40;;;6.40;99.90;;;;;;5043059;28;20236;-51
2022/01/17 03:36:09;;;;;;;10.40;2.10;;;6.40;99.90;;;;;;5010291;28;20223;-51
2022/01/17 03:38:36;;;;;;;8.93;2.07;;;6.30;99.90;;;;;;5022293;28;20308;-51
2022/01/17 03:41:05;;;;;;;13.87;2.13;;;6.30;99.90;;;;;;5035940;28;20208;-51
2022/01/17 03:43:33;;;;;;;17.10;2.73;;;6.30;99.90;;;;;;5032343;28;20618;-51
2022/01/17 03:46:00;;;;;;;21.77;3.07;;;6.30;99.90;;;;;;5043214;28;20748;-51
2022/01/17 03:48:29;;;;;;;9.63;2.03;;;6.30;99.90;;;;;;5034759;28;20212;-51
2022/01/17 03:50:58;;;;;;;15.03;3.00;;;6.30;99.90;;;;;;5023139;28;20217;-51
2022/01/17 03:53:25;;;;;;;7.30;2.60;;;6.30;99.90;;;;;;5011912;28;20285;-51
2022/01/17 03:55:53;;;;;;;9.10;2.20;;;6.30;99.90;;;;;;5042336;28;20867;-51
2022/01/17 03:58:22;;;;;;;9.33;2.37;;;6.30;99.90;;;;;;5020371;28;20221;-51
2022/01/17 04:00:50;;;;;;;13.87;2.30;;;6.30;99.90;;;;;;5027107;28;20213;-50
2022/01/17 04:03:17;;;;;;;10.73;2.00;;;6.30;99.90;;;;;;5027535;28;20221;-51
2022/01/17 04:05:46;;;;;;;9.83;2.00;;;6.30;99.90;;;;;;5030388;28;20206;-51
2022/01/17 04:08:13;;;;;;;14.03;2.40;;;6.30;99.90;;;;;;5020045;28;20205;-51
2022/01/17 04:10:41;;;;;;;15.07;2.87;;;6.30;99.90;;;;;;5024190;28;20212;-51
2022/01/17 04:13:09;;;;;;;17.67;2.63;;;6.30;99.90;;;;;;5034284;28;20231;-51
2022/01/17 04:15:37;;;;;;;9.80;2.10;;;6.30;99.90;;;;;;5032353;28;20209;-51
2022/01/17 04:18:04;;;;;;;12.13;2.53;;;6.30;99.90;;;;;;5030026;28;20220;-51
2022/01/17 04:20:31;;;;;;;9.53;1.90;;;6.30;99.90;;;;;;5028471;28;20212;-51
2022/01/17 04:23:02;;;;;;;9.50;2.10;;;6.30;99.90;;;;;;5010042;28;20621;-51
2022/01/17 04:25:31;;;;;;;9.03;1.93;;;6.30;99.90;;;;;;5031391;28;20225;-51
2022/01/17 04:28:00;;;;;;;13.90;3.17;;;6.30;99.90;;;;;;5035751;28;20654;-52
2022/01/17 04:30:27;;;;;;;10.93;2.27;;;6.30;99.90;;;;;;5014662;28;20212;-51
2022/01/17 04:32:54;;;;;;;13.57;2.30;;;6.40;99.90;;;;;;5034204;28;20224;-51
2022/01/17 04:35:24;;;;;;;13.30;2.73;;;6.30;99.90;;;;;;5029271;28;20212;-51
2022/01/17 04:37:53;;;;;;;7.97;1.97;;;6.30;99.90;;;;;;5022123;28;23533;-51
2022/01/17 04:40:23;;;;;;;12.07;2.23;;;6.30;99.90;;;;;;5026313;28;20592;-50
2022/01/17 04:42:53;;;;;;;10.10;1.90;;;6.30;99.90;;;;;;5034470;28;20733;-51
2022/01/17 04:45:21;;;;;;;12.20;2.43;;;6.30;99.90;;;;;;5016352;28;21546;-51
2022/01/17 04:47:50;;;;;;;10.03;2.50;;;6.30;99.90;;;;;;5042156;28;20201;-51
2022/01/17 04:50:19;;;;;;;12.87;3.20;;;6.30;99.90;;;;;;5031823;28;21118;-51
2022/01/17 04:52:47;;;;;;;11.40;2.00;;;6.30;99.90;;;;;;5012020;28;20233;-50
2022/01/17 04:55:15;;;;;;;11.20;2.00;;;6.30;99.90;;;;;;4992470;28;20236;-51
2022/01/17 04:57:44;;;;;;;11.27;2.80;;;6.30;99.90;;;;;;5042700;28;20232;-51
2022/01/17 05:00:14;;;;;;;14.70;2.60;;;6.40;99.90;;;;;;5020064;28;20448;-51
2022/01/17 05:02:42;;;;;;;16.70;2.17;;;6.30;99.90;;;;;;5018590;28;20232;-50
2022/01/17 05:05:09;;;;;;;9.33;1.67;;;6.30;99.90;;;;;;5033867;28;20292;-51
2022/01/17 05:07:37;;;;;;;12.53;2.20;;;6.40;99.90;;;;;;5038778;28;20758;-51
2022/01/17 05:10:08;;;;;;;13.57;2.40;;;6.40;99.90;;;;;;4996741;28;20231;-51
2022/01/17 05:12:35;;;;;;;12.00;2.40;;;6.40;99.90;;;;;;5045191;28;20221;-51
2022/01/17 05:15:05;;;;;;;11.33;2.67;;;6.40;99.90;;;;;;5035199;28;20300;-51
2022/01/17 05:17:44;;;;;;;12.93;2.13;;;6.40;99.90;;;;;;5018797;28;20712;-50
2022/01/17 05:20:12;;;;;;;11.67;2.17;;;6.40;99.90;;;;;;5038712;28;20205;-51
2022/01/17 05:22:41;;;;;;;10.10;2.33;;;6.40;99.90;;;;;;5016584;28;20611;-51
2022/01/17 05:25:11;;;;;;;15.93;2.63;;;6.40;99.90;;;;;;5011763;28;20394;-51
2022/01/17 05:27:38;;;;;;;15.63;2.47;;;6.40;99.90;;;;;;5009794;28;20670;-51
2022/01/17 05:30:10;;;;;;;18.43;2.33;;;6.40;99.90;;;;;;5029277;28;20216;-51
2022/01/17 05:32:38;;;;;;;18.37;2.77;;;6.40;99.90;;;;;;4996299;28;20237;-51
2022/01/17 05:35:06;;;;;;;14.03;2.67;;;6.40;99.90;;;;;;5025498;28;20604;-44
2022/01/17 05:37:33;;;;;;;13.07;2.83;;;6.50;99.90;;;;;;5021652;28;20229;-44
2022/01/17 05:40:00;;;;;;;13.60;2.37;;;6.50;99.90;;;;;;5013593;28;20215;-44
2022/01/17 05:42:27;;;;;;;11.67;2.60;;;6.50;99.90;;;;;;5022553;28;20507;-44
2022/01/17 05:44:55;;;;;;;7.43;2.40;;;6.50;99.90;;;;;;5036625;28;20201;-45
2022/01/17 05:47:23;;;;;;;13.93;2.87;;;6.50;99.90;;;;;;5016417;28;20717;-44
2022/01/17 05:49:50;;;;;;;12.33;2.10;;;6.50;99.90;;;;;;5004389;28;20966;-44
2022/01/17 05:52:17;;;;;;;17.83;2.70;;;6.50;99.90;;;;;;5020336;28;20228;-44
2022/01/17 05:54:44;;;;;;;8.87;2.10;;;6.60;99.90;;;;;;5020340;28;20209;-44
2022/01/17 05:57:11;;;;;;;17.40;2.63;;;6.60;99.90;;;;;;5017620;28;20233;-45
2022/01/17 05:59:39;;;;;;;9.67;2.37;;;6.50;99.90;;;;;;5027732;28;20211;-45
2022/01/17 06:02:06;;;;;;;7.93;2.43;;;6.50;99.90;;;;;;5007912;28;21274;-44
2022/01/17 06:04:34;;;;;;;13.57;2.43;;;6.50;99.90;;;;;;5024881;28;20260;-45
2022/01/17 06:07:01;;;;;;;8.37;2.50;;;6.50;99.90;;;;;;5030242;28;20213;-45
2022/01/17 06:09:28;;;;;;;13.93;2.77;;;6.40;99.90;;;;;;5027611;28;20212;-44
2022/01/17 06:11:55;;;;;;;19.53;3.17;;;6.50;99.90;;;;;;5013042;28;20233;-45
2022/01/17 06:14:22;;;;;;;12.67;2.60;;;6.50;99.90;;;;;;5021064;28;20222;-44
2022/01/17 06:16:49;;;;;;;10.63;2.50;;;6.50;99.90;;;;;;5027871;28;20215;-44
2022/01/17 06:19:17;;;;;;;13.43;2.50;;;6.50;99.90;;;;;;5036741;28;20765;-44
2022/01/17 06:21:45;;;;;;;11.07;2.97;;;6.60;99.90;;;;;;5035991;28;20677;-44
2022/01/17 06:24:12;;;;;;;15.07;2.90;;;6.50;99.90;;;;;;5046260;28;20568;-44
2022/01/17 06:26:40;;;;;;;10.30;2.80;;;6.50;99.90;;;;;;5034162;28;20216;-44
2022/01/17 06:29:09;;;;;;;14.73;3.23;;;6.60;99.90;;;;;;5040846;28;20427;-44
2022/01/17 06:31:36;;;;;;;11.57;2.90;;;6.60;99.90;;;;;;5040909;28;20223;-44
2022/01/17 06:34:03;;;;;;;12.67;2.57;;;6.60;99.90;;;;;;5031789;28;20321;-45
2022/01/17 06:36:30;;;;;;;13.00;3.10;;;6.60;99.90;;;;;;5022152;28;20212;-45
2022/01/17 06:39:00;;;;;;;8.27;3.03;;;6.50;99.90;;;;;;5035454;28;20224;-44
2022/01/17 06:41:27;;;;;;;15.00;3.67;;;6.50;99.90;;;;;;5026303;28;20729;-44
2022/01/17 06:43:54;;;;;;;10.67;2.27;;;6.50;99.90;;;;;;5036108;28;20219;-44
2022/01/17 06:46:21;;;;;;;11.27;2.57;;;6.50;99.90;;;;;;5040360;28;20481;-44
2022/01/17 06:48:48;;;;;;;9.73;2.90;;;6.60;99.90;;;;;;5047945;28;20217;-45
2022/01/17 06:51:15;;;;;;;14.00;2.67;;;6.60;99.90;;;;;;5026623;28;20211;-45
2022/01/17 06:53:43;;;;;;;12.63;2.97;;;6.60;99.90;;;;;;5026028;28;20582;-44
2022/01/17 06:56:12;;;;;;;16.13;2.83;;;6.60;99.90;;;;;;5047489;28;20205;-45
2022/01/17 06:58:40;;;;;;;13.83;2.57;;;6.60;99.90;;;;;;5018759;28;20235;-45
2022/01/17 07:01:07;;;;;;;17.33;2.83;;;6.60;99.90;;;;;;5034999;28;20209;-45
2022/01/17 07:03:34;;;;;;;10.90;3.00;;;6.60;99.90;;;;;;5034616;28;20470;-44
2022/01/17 07:06:01;;;;;;;22.60;3.17;;;6.70;99.90;;;;;;5033745;28;20881;-45
2022/01/17 07:08:28;;;;;;;14.40;3.13;;;6.70;99.90;;;;;;5017483;28;20953;-44
2022/01/17 07:10:55;;;;;;;13.40;3.20;;;6.70;99.90;;;;;;5047479;28;20206;-45
2022/01/17 07:13:23;;;;;;;17.50;3.00;;;6.70;99.90;;;;;;5027710;28;20719;-45
2022/01/17 07:15:51;;;;;;;13.77;2.77;;;6.70;99.90;;;;;;5029748;28;20208;-44
2022/01/17 07:18:18;;;;;;;8.80;2.73;;;6.70;99.90;;;;;;5045728;28;20219;-44
2022/01/17 07:20:45;;;;;;;21.37;2.97;;;6.80;99.90;;;;;;5038427;28;20205;-45
2022/01/17 07:23:12;;;;;;;10.83;2.57;;;6.80;99.90;;;;;;5035341;28;20242;-45
2022/01/17 07:25:39;;;;;;;12.47;3.73;;;6.80;99.90;;;;;;5042040;28;20894;-45
2022/01/17 07:28:08;;;;;;;11.30;3.30;;;6.90;99.90;;;;;;5042175;28;20201;-45
2022/01/17 07:30:37;;;;;;;17.60;4.50;;;6.90;99.90;;;;;;5028615;28;20856;-45
2022/01/17 07:33:05;;;;;;;18.83;3.20;;;6.90;99.90;;;;;;5041266;28;20221;-45
2022/01/17 07:35:33;;;;;;;19.40;3.53;;;6.90;99.90;;;;;;5039613;28;20227;-44
2022/01/17 07:38:00;;;;;;;22.00;4.00;;;7.00;99.90;;;;;;5024003;28;20230;-45
2022/01/17 07:40:27;;;;;;;14.07;3.17;;;6.90;99.90;;;;;;5027450;28;20627;-44
2022/01/17 07:42:54;;;;;;;15.20;3.13;;;7.00;99.90;;;;;;5034141;28;20233;-44
2022/01/17 07:45:21;;;;;;;10.80;3.47;;;7.10;99.90;;;;;;5008163;28;20418;-45
2022/01/17 07:50:48;;;;;;;20.87;3.33;;;7.10;99.90;;;;;;5021496;28;20232;-45
2022/01/17 07:53:16;;;;;;;24.30;3.93;;;7.10;99.90;;;;;;4996119;28;20313;-45
2022/01/17 07:55:43;;;;;;;26.30;3.47;;;7.20;99.90;;;;;;5005553;28;20326;-44
2022/01/17 07:58:10;;;;;;;15.50;3.27;;;7.20;99.90;;;;;;5028377;28;20228;-45
2022/01/17 08:00:37;;;;;;;19.37;4.00;;;7.20;99.90;;;;;;5000437;28;20844;-45
2022/01/17 08:03:06;;;;;;;20.13;3.90;;;7.20;99.90;;;;;;5027800;28;21542;-45
2022/01/17 08:05:33;;;;;;;20.50;4.50;;;7.30;99.90;;;;;;5033805;28;20342;-51
2022/01/17 08:08:00;;;;;;;20.83;3.80;;;7.30;99.90;;;;;;5028486;28;20210;-52
2022/01/17 08:10:27;;;;;;;14.67;3.37;;;7.30;99.90;;;;;;5028276;28;20914;-51
2022/01/17 08:12:54;;;;;;;18.13;3.67;;;7.40;99.90;;;;;;5032263;28;20216;-51
2022/01/17 08:15:21;;;;;;;21.07;4.03;;;7.40;99.90;;;;;;5014383;28;20239;-51
2022/01/17 08:17:48;;;;;;;19.60;4.47;;;7.40;99.90;;;;;;5024640;28;20611;-51
2022/01/17 08:20:17;;;;;;;20.00;4.57;;;7.40;99.90;;;;;;5036334;28;20214;-51
2022/01/17 08:22:45;;;;;;;13.57;2.93;;;7.40;99.90;;;;;;5007607;28;20225;-51
2022/01/17 08:25:12;;;;;;;19.53;3.47;;;7.50;99.90;;;;;;5023080;28;20211;-51
2022/01/17 08:27:39;;;;;;;23.23;4.03;;;7.60;99.90;;;;;;5033945;28;20204;-51
2022/01/17 08:30:08;;;;;;;23.50;4.50;;;7.60;99.90;;;;;;5043324;28;20625;-51
2022/01/17 08:32:35;;;;;;;23.07;4.10;;;7.70;99.90;;;;;;5024241;28;20448;-44
2022/01/17 08:35:02;;;;;;;21.33;3.73;;;7.70;99.90;;;;;;5043798;28;20216;-44
2022/01/17 08:37:31;;;;;;;25.03;4.60;;;7.70;99.90;;;;;;5028138;28;20566;-45
2022/01/17 08:39:59;;;;;;;29.53;4.67;;;7.80;99.90;;;;;;5052446;28;20707;-45
2022/01/17 08:42:26;;;;;;;22.97;3.80;;;7.80;99.90;;;;;;5036624;28;20720;-45
2022/01/17 08:44:54;;;;;;;22.77;3.97;;;7.90;99.90;;;;;;5024925;28;20230;-45
2022/01/17 08:47:21;;;;;;;28.90;4.60;;;7.80;99.90;;;;;;5014549;28;20655;-44
2022/01/17 08:49:48;;;;;;;17.77;3.73;;;7.90;99.90;;;;;;5030131;28;20215;-44
2022/01/17 08:52:16;;;;;;;21.47;4.40;;;7.90;99.90;;;;;;5034489;28;20486;-45
2022/01/17 08:54:44;;;;;;;28.63;4.30;;;7.90;99.90;;;;;;5036002;28;20671;-44
2022/01/17 08:57:12;;;;;;;24.20;4.00;;;7.90;99.90;;;;;;5040732;28;20212;-45
2022/01/17 08:59:39;;;;;;;22.47;4.87;;;7.90;99.90;;;;;;5055588;28;20227;-45
2022/01/17 09:02:06;;;;;;;18.37;3.97;;;8.00;99.90;;;;;;4998732;28;20224;-45
2022/01/17 09:04:35;;;;;;;30.37;4.97;;;8.00;99.90;;;;;;5037286;28;20242;-45
2022/01/17 09:07:01;;;;;;;23.13;4.63;;;8.00;99.90;;;;;;5033698;28;20670;-44
2022/01/17 09:09:29;;;;;;;18.00;4.90;;;8.10;99.90;;;;;;5036293;28;20308;-46
2022/01/17 09:11:57;;;;;;;26.77;5.97;;;8.10;99.90;;;;;;5048719;28;20266;-45
2022/01/17 09:14:24;;;;;;;27.40;4.90;;;8.10;99.90;;;;;;5045050;28;20197;-45
2022/01/17 09:16:51;;;;;;;28.03;5.47;;;8.10;99.90;;;;;;5039588;28;20255;-45
2022/01/17 09:19:18;;;;;;;30.13;5.47;;;8.10;99.90;;;;;;5036427;28;20231;-45
2022/01/17 09:21:45;;;;;;;24.30;4.67;;;8.10;99.90;;;;;;5046045;28;20207;-45
2022/01/17 09:24:12;;;;;;;21.63;4.87;;;8.10;99.90;;;;;;5038237;28;20396;-45
2022/01/17 09:26:38;;;;;;;18.77;3.73;;;8.10;99.90;;;;;;5052271;28;20287;-45
2022/01/17 09:29:07;;;;;;;27.23;5.00;;;8.10;99.90;;;;;;5044600;28;20218;-45
2022/01/17 09:31:33;;;;;;;27.97;5.23;;;8.10;99.90;;;;;;5043347;28;20242;-45
2022/01/17 09:34:00;;;;;;;25.97;4.27;;;8.10;99.90;;;;;;5038393;28;20235;-45
2022/01/17 09:36:29;;;;;;;27.80;4.10;;;8.10;99.90;;;;;;5053835;28;20206;-45
2022/01/17 09:38:56;;;;;;;34.90;5.30;;;8.10;99.90;;;;;;5043301;28;20219;-45
2022/01/17 09:41:23;;;;;;;22.73;4.23;;;8.10;99.90;;;;;;5044782;28;20216;-45
2022/01/17 09:43:50;;;;;;;24.67;4.80;;;8.10;99.90;;;;;;5052372;28;20264;-46
2022/01/17 09:46:22;;;;;;;24.87;4.97;;;8.10;99.90;;;;;;5049190;28;20199;-45
2022/01/17 09:48:50;;;;;;;20.70;4.57;;;8.10;99.90;;;;;;5042586;28;20678;-46
2022/01/17 09:51:31;;;;;;;29.37;4.77;;;8.10;99.90;;;;;;5047845;28;20227;-45
2022/01/17 09:54:00;;;;;;;27.30;5.30;;;8.10;99.90;;;;;;5041677;28;20251;-45
2022/01/17 09:56:28;;;;;;;22.30;4.17;;;8.10;99.90;;;;;;5044824;28;21097;-45
2022/01/17 09:58:56;;;;;;;22.73;5.40;;;8.10;99.90;;;;;;5056570;28;20235;-46
2022/01/17 10:01:25;;;;;;;24.20;4.20;;;8.10;99.90;;;;;;5049650;28;20223;-45
2022/01/17 10:03:56;;;;;;;23.80;4.57;;;8.10;99.90;;;;;;5038966;28;20242;-45
2022/01/17 10:06:24;;;;;;;23.10;4.73;;;8.00;99.90;;;;;;5051803;28;20421;-45
2022/01/17 10:09:09;;;;;;;33.07;5.70;;;8.10;99.90;;;;;;5048560;28;20205;-45
2022/01/17 10:11:36;;;;;;;25.80;4.37;;;8.10;99.90;;;;;;5057895;28;20294;-45
2022/01/17 11:05:17;;;;;;;24.33;4.50;;;8.30;99.90;;;;;;5066191;27;20284;-63
2022/01/17 11:07:46;;;;;;;26.70;4.47;;;8.20;99.90;;;;;;5069776;28;20257;-64
2022/01/17 11:10:19;;;;;;;27.17;5.90;;;8.20;99.90;;;;;;5069225;28;20422;-65
2022/01/17 11:12:47;;;;;;;25.90;4.70;;;8.10;99.90;;;;;;5070551;28;20686;-65
2022/01/17 11:15:15;;;;;;;25.60;5.50;;;8.10;99.90;;;;;;5073494;28;20499;-65
2022/01/17 11:28:23;;;;;;;21.43;4.07;;;8.20;99.90;;;;;;5100352;22;20276;-64
2022/01/17 11:30:52;;;;;;;23.23;3.53;;;8.10;99.90;;;;;;5021300;28;20251;-63
2022/01/17 11:33:19;;;;;;;9.60;2.70;;;8.10;99.90;;;;;;5027798;28;20307;-64
2022/01/17 11:35:52;;;;;;;19.27;3.63;;;8.10;99.90;;;;;;5023235;28;20216;-65
2022/01/17 11:38:22;;;;;;;15.63;3.53;;;8.10;99.90;;;;;;5045842;28;20280;-63
2022/01/17 11:40:50;;;;;;;12.87;2.13;;;8.10;99.90;;;;;;5056425;28;20548;-64
2022/01/17 11:43:21;;;;;;;16.70;3.17;;;8.00;99.90;;;;;;5018286;28;20230;-64
2022/01/17 11:45:49;;;;;;;14.50;3.37;;;8.10;99.90;;;;;;5038728;28;20301;-64
2022/01/17 11:48:23;;;;;;;25.70;5.20;;;8.00;99.90;;;;;;5037283;28;20196;-64
2022/01/17 11:50:52;;;;;;;16.60;3.33;;;8.10;99.90;;;;;;5027740;28;20217;-63
2022/01/17 11:53:51;;;;;;;20.00;2.83;;;8.10;99.90;;;;;;5038375;28;20224;-63
2022/01/17 11:56:40;;;;;;;19.33;3.07;;;8.10;99.90;;;;;;5029747;28;21074;-64
2022/01/17 11:59:38;;;;;;;10.10;2.17;;;8.00;99.90;;;;;;5036234;28;20224;-63
2022/01/17 12:05:33;;;;;;;13.47;2.53;;;8.10;99.90;;;;;;5252006;22;20233;-65
2022/01/17 12:08:00;;;;;;;13.57;2.63;;;8.00;99.90;;;;;;5031388;28;20198;-67
2022/01/17 12:10:38;;;;;;;13.83;2.67;;;8.00;99.90;;;;;;5034501;28;20300;-65
2022/01/17 12:13:39;;;;;;;16.73;3.03;;;7.90;99.90;;;;;;5031640;28;20284;-66
2022/01/17 12:16:17;;;;;;;13.27;2.03;;;7.90;99.90;;;;;;5029377;28;20241;-67
2022/01/17 12:18:47;;;;;;;13.20;2.47;;;7.90;99.90;;;;;;5014411;28;20243;-67
2022/01/17 12:21:24;;;;;;;14.77;3.27;;;7.90;99.90;;;;;;5014562;28;20223;-66
2022/01/17 12:23:51;;;;;;;13.27;2.37;;;7.90;99.90;;;;;;5012745;28;20210;-68
2022/01/17 12:26:26;;;;;;;11.83;2.93;;;7.90;99.90;;;;;;5018575;28;20185;-66
2022/01/17 12:28:55;;;;;;;9.23;2.50;;;8.00;99.90;;;;;;5018079;28;20309;-67
2022/01/17 12:31:43;;;;;;;10.90;2.50;;;7.90;99.90;;;;;;5018601;28;20285;-67
2022/01/17 12:34:24;;;;;;;11.00;2.23;;;7.80;99.90;;;;;;5019341;28;20558;-66
2022/01/17 12:36:51;;;;;;;17.93;2.80;;;7.70;99.90;;;;;;5019985;28;20576;-65
2022/01/17 12:39:21;;;;;;;7.70;2.47;;;7.70;99.90;;;;;;5022368;28;20208;-67
2022/01/17 12:41:49;;;;;;;18.87;2.60;;;7.60;99.90;;;;;;5026852;28;20366;-68
2022/01/17 12:44:19;;;;;;;16.80;2.50;;;7.60;99.90;;;;;;5027724;28;20228;-69
2022/01/17 12:49:28;;;;;;;13.00;3.20;;;7.70;99.90;;;;;;5452541;22;20248;-64
2022/01/17 12:51:57;;;;;;;12.77;2.63;;;7.80;99.90;;;;;;5036808;28;20196;-63
2022/01/17 12:54:26;;;;;;;13.13;2.43;;;7.80;99.90;;;;;;5029561;28;20332;-64
2022/01/17 12:57:01;;;;;;;10.73;2.73;;;7.80;99.90;;;;;;5342836;23;20264;-60
2022/01/17 12:59:28;;;;;;;10.17;1.83;;;7.80;99.90;;;;;;4998456;28;20393;-62
2022/01/17 13:01:58;;;;;;;12.93;2.40;;;7.90;99.90;;;;;;4992391;28;20204;-63
2022/01/17 13:04:27;;;;;;;18.80;2.50;;;7.90;99.90;;;;;;4993935;28;20308;-63
2022/01/17 13:06:54;;;;;;;9.67;2.30;;;7.90;99.90;;;;;;5017619;28;20277;-64
2022/01/17 13:09:24;;;;;;;7.23;2.63;;;7.80;99.90;;;;;;5011810;28;20208;-64
2022/01/17 13:11:57;;;;;;;19.13;2.37;;;7.70;99.90;;;;;;4985624;28;20201;-63
2022/01/17 13:14:25;;;;;;;9.63;2.17;;;7.80;99.90;;;;;;5002723;28;21093;-63
2022/01/17 13:16:52;;;;;;;12.13;2.83;;;7.80;99.90;;;;;;4981896;28;20230;-61
2022/01/17 13:19:22;;;;;;;14.43;2.30;;;7.80;99.90;;;;;;5006454;28;20213;-60
2022/01/17 13:21:50;;;;;;;10.80;2.50;;;7.80;99.90;;;;;;4992794;28;20261;-61
2022/01/17 13:24:32;;;;;;;13.67;2.23;;;7.80;99.90;;;;;;5003445;28;20293;-64
2022/01/17 13:27:02;;;;;;;14.57;2.57;;;7.70;99.90;;;;;;4991470;28;20202;-62
2022/01/17 13:29:30;;;;;;;13.67;2.63;;;7.80;99.90;;;;;;4991775;28;20408;-62
2022/01/17 13:32:00;;;;;;;12.67;2.27;;;7.80;99.90;;;;;;4980398;28;20518;-62
2022/01/17 13:34:29;;;;;;;13.73;2.27;;;7.80;99.90;;;;;;5003498;28;20568;-62
2022/01/17 13:37:03;;;;;;;11.37;2.60;;;7.80;99.90;;;;;;4977944;28;20705;-62
2022/01/17 13:39:30;;;;;;;12.03;2.60;;;7.70;99.90;;;;;;4991131;28;21041;-62
2022/01/17 13:42:00;;;;;;;14.40;3.17;;;7.70;99.90;;;;;;4989062;28;20226;-63
2022/01/17 13:44:29;;;;;;;10.43;2.40;;;7.60;99.90;;;;;;4994015;28;20226;-61
2022/01/17 13:46:59;;;;;;;13.73;2.63;;;7.50;99.90;;;;;;4995848;28;20225;-64
2022/01/17 13:49:26;;;;;;;16.93;3.13;;;7.50;99.90;;;;;;4984557;28;20195;-63
2022/01/17 13:51:53;;;;;;;18.30;3.47;;;7.50;99.90;;;;;;4984779;28;20233;-62
2022/01/17 13:54:26;;;;;;;16.50;3.77;;;7.40;99.90;;;;;;4984323;28;20234;-63
2022/01/17 13:56:54;;;;;;;15.27;2.97;;;7.40;99.90;;;;;;4993710;28;20232;-62
2022/01/17 13:59:23;;;;;;;26.07;3.37;;;7.40;99.90;;;;;;4996022;28;20325;-63
2022/01/17 14:01:51;;;;;;;11.73;2.93;;;7.50;99.90;;;;;;5015506;28;20247;-62
2022/01/17 14:04:20;;;;;;;17.30;3.20;;;7.50;99.90;;;;;;4994617;28;20230;-63
2022/01/17 14:06:48;;;;;;;20.90;3.20;;;7.50;99.90;;;;;;4987353;28;20238;-61
2022/01/17 14:09:15;;;;;;;16.20;2.97;;;7.50;99.90;;;;;;4994729;28;20253;-63
2022/01/17 14:11:47;;;;;;;18.83;3.40;;;7.50;99.90;;;;;;4988260;28;20211;-61